Airfield :
LOGIN :

Register | Disclaimer

   EN    FR    IT 

 










Legend :    VFR   Marginal VFR   IFR   Intensive IFR   Very Intensive IFR
Visi :
Ceiling :
>= 8 km
>= 3000ft
5 to 8 km
1000 to 3000 ft
1500m to 5 km
500 to 1000 ft
800 to 1500m
200 to 500 ft
< 800m
< 200 ft
Symbols :   Thunderstorms  Fog  Heavy snow  Heavy precipitations  Wind > 20 kt
SIGMETs :     Misc.  Thunderstorms  Icing  Turbulence  Mountain Waves  Volcanic Ashes







- Airport Elevation : 1260 ft
- IATA code : LDE
- Download approach charts


LFBT - Tarbes / Ossun

CURRENT METAR :
  • 171200Z AUTO 27006KT 230V310 CAVOK 22/15 Q1018 TEMPO FEW035CB

EXPIRED METARs :
  • 171130Z AUTO 26007KT CAVOK 22/16 Q1018 BECMG FEW035CB
  • 171100Z AUTO 24006KT 210V270 CAVOK 21/16 Q1018 NOSIG
  • 171030Z AUTO 25007KT CAVOK 21/16 Q1018 NOSIG
  • 171000Z AUTO 26006KT 220V290 9999 FEW013 OVC140 20/16 Q1018 NOSIG
  • 170930Z AUTO 26008KT 9999 FEW013 BKN120 19/16 Q1018 NOSIG

TAF TAF LFBT
Valid from the 17 at 12:00 until the 18 at 12:00 UTC


171100Z 1712/1812 27007KT CAVOK
TEMPO 1713/1716 FEW035CB
BECMG 1718/1721 BKN040
PROB40 1723/1808 4000 DZ BKN014 OVC025
No reported NOTAMs for that airfield.



MET'MAP, your aeronautical weather chart ! - Copyright ORBIFLY December 2007 - Disclaimer

ORBIFLY MET'MAP TEAM :

Programming & Development : Alexandra Zaïnal
Concept & Development : Baudouin d'Aumeries
Co-Development & Prog : Marc-Olivier Méhu
Technical & hardware support : Manuel Goepfert

Contact : metmap@orbifly.com




SOURCES & CREDITS :

   NOAA